sensor_id;sensor_type;location;lat;lon;timestamp;temperature;humidity
8313;DHT22;4194;43.408;24.626;2023-08-31T00:02:07;21.40;99.90
8313;DHT22;4194;43.408;24.626;2023-08-31T00:04:32;22.40;99.90
8313;DHT22;4194;43.408;24.626;2023-08-31T00:06:58;22.60;99.90
8313;DHT22;4194;43.408;24.626;2023-08-31T00:09:24;22.50;99.90
8313;DHT22;4194;43.408;24.626;2023-08-31T00:11:50;22.40;99.90
8313;DHT22;4194;43.408;24.626;2023-08-31T00:14:17;21.40;99.90
8313;DHT22;4194;43.408;24.626;2023-08-31T00:16:43;20.70;99.90
8313;DHT22;4194;43.408;24.626;2023-08-31T00:19:11;22.20;99.90
8313;DHT22;4194;43.408;24.626;2023-08-31T00:24:03;21.00;99.90
8313;DHT22;4194;43.408;24.626;2023-08-31T00:26:29;20.20;99.90
8313;DHT22;4194;43.408;24.626;2023-08-31T00:28:56;21.30;99.90
8313;DHT22;4194;43.408;24.626;2023-08-31T00:31:22;20.90;99.90
8313;DHT22;4194;43.408;24.626;2023-08-31T00:33:48;20.90;99.90
8313;DHT22;4194;43.408;24.626;2023-08-31T00:36:14;21.80;99.90
8313;DHT22;4194;43.408;24.626;2023-08-31T00:38:48;22.10;99.90
8313;DHT22;4194;43.408;24.626;2023-08-31T00:41:14;20.30;99.90
8313;DHT22;4194;43.408;24.626;2023-08-31T00:43:40;21.10;99.90
8313;DHT22;4194;43.408;24.626;2023-08-31T00:46:06;20.30;99.90
8313;DHT22;4194;43.408;24.626;2023-08-31T00:48:32;21.10;99.90
8313;DHT22;4194;43.408;24.626;2023-08-31T00:50:58;20.20;99.90
8313;DHT22;4194;43.408;24.626;2023-08-31T00:53:24;22.20;99.90
8313;DHT22;4194;43.408;24.626;2023-08-31T00:55:50;21.00;99.90
8313;DHT22;4194;43.408;24.626;2023-08-31T00:58:21;20.80;99.90
8313;DHT22;4194;43.408;24.626;2023-08-31T01:03:53;22.40;99.90
8313;DHT22;4194;43.408;24.626;2023-08-31T01:06:46;20.20;99.90
8313;DHT22;4194;43.408;24.626;2023-08-31T01:09:34;21.10;99.90
8313;DHT22;4194;43.408;24.626;2023-08-31T01:12:11;21.10;99.90
8313;DHT22;4194;43.408;24.626;2023-08-31T01:14:47;20.10;99.90
8313;DHT22;4194;43.408;24.626;2023-08-31T01:17:16;20.00;99.90
8313;DHT22;4194;43.408;24.626;2023-08-31T01:19:51;20.50;99.90
8313;DHT22;4194;43.408;24.626;2023-08-31T01:22:38;21.10;99.90
8313;DHT22;4194;43.408;24.626;2023-08-31T01:25:08;22.60;99.90
8313;DHT22;4194;43.408;24.626;2023-08-31T01:27:35;21.10;99.90
8313;DHT22;4194;43.408;24.626;2023-08-31T01:30:03;21.10;99.90
8313;DHT22;4194;43.408;24.626;2023-08-31T01:32:30;21.10;99.90
8313;DHT22;4194;43.408;24.626;2023-08-31T01:40:36;21.80;99.90
8313;DHT22;4194;43.408;24.626;2023-08-31T01:43:04;21.20;99.90
8313;DHT22;4194;43.408;24.626;2023-08-31T01:45:32;22.00;99.90
8313;DHT22;4194;43.408;24.626;2023-08-31T01:48:03;22.30;99.90
8313;DHT22;4194;43.408;24.626;2023-08-31T01:50:29;21.00;99.90
8313;DHT22;4194;43.408;24.626;2023-08-31T01:52:55;21.10;99.90
8313;DHT22;4194;43.408;24.626;2023-08-31T01:55:22;21.10;99.90
8313;DHT22;4194;43.408;24.626;2023-08-31T01:57:48;21.20;99.90
8313;DHT22;4194;43.408;24.626;2023-08-31T02:00:14;20.70;99.90
8313;DHT22;4194;43.408;24.626;2023-08-31T02:02:44;21.20;99.90
8313;DHT22;4194;43.408;24.626;2023-08-31T02:05:10;21.30;99.90
8313;DHT22;4194;43.408;24.626;2023-08-31T02:07:35;21.30;99.90
8313;DHT22;4194;43.408;24.626;2023-08-31T02:10:02;21.30;99.90
8313;DHT22;4194;43.408;24.626;2023-08-31T02:12:32;20.40;99.90
8313;DHT22;4194;43.408;24.626;2023-08-31T02:17:25;21.00;99.90
8313;DHT22;4194;43.408;24.626;2023-08-31T02:19:51;20.80;99.90
8313;DHT22;4194;43.408;24.626;2023-08-31T02:22:19;21.30;99.90
8313;DHT22;4194;43.408;24.626;2023-08-31T02:24:46;21.80;99.90
8313;DHT22;4194;43.408;24.626;2023-08-31T02:27:12;21.10;99.90
8313;DHT22;4194;43.408;24.626;2023-08-31T02:29:38;22.60;99.90
8313;DHT22;4194;43.408;24.626;2023-08-31T02:32:07;20.70;99.90
8313;DHT22;4194;43.408;24.626;2023-08-31T02:34:33;21.10;99.90
8313;DHT22;4194;43.408;24.626;2023-08-31T02:36:58;20.90;99.90
8313;DHT22;4194;43.408;24.626;2023-08-31T02:39:24;20.50;99.90
8313;DHT22;4194;43.408;24.626;2023-08-31T02:41:49;22.40;99.90
8313;DHT22;4194;43.408;24.626;2023-08-31T02:44:15;21.10;99.90
8313;DHT22;4194;43.408;24.626;2023-08-31T02:46:41;22.20;99.90
8313;DHT22;4194;43.408;24.626;2023-08-31T02:49:07;20.20;99.90
8313;DHT22;4194;43.408;24.626;2023-08-31T02:51:32;20.20;99.90
8313;DHT22;4194;43.408;24.626;2023-08-31T02:53:58;22.50;99.90
8313;DHT22;4194;43.408;24.626;2023-08-31T02:56:23;20.30;99.90
8313;DHT22;4194;43.408;24.626;2023-08-31T02:58:49;20.40;99.90
8313;DHT22;4194;43.408;24.626;2023-08-31T03:01:15;20.50;99.90
8313;DHT22;4194;43.408;24.626;2023-08-31T03:03:42;21.50;99.90
8313;DHT22;4194;43.408;24.626;2023-08-31T03:06:08;21.30;99.90
8313;DHT22;4194;43.408;24.626;2023-08-31T03:08:35;20.30;99.90
8313;DHT22;4194;43.408;24.626;2023-08-31T03:11:02;22.00;99.90
8313;DHT22;4194;43.408;24.626;2023-08-31T03:13:28;20.90;99.90
8313;DHT22;4194;43.408;24.626;2023-08-31T03:15:53;20.30;99.90
8313;DHT22;4194;43.408;24.626;2023-08-31T03:18:19;22.10;99.90
8313;DHT22;4194;43.408;24.626;2023-08-31T03:20:45;20.40;99.90
8313;DHT22;4194;43.408;24.626;2023-08-31T03:23:14;20.10;99.90
8313;DHT22;4194;43.408;24.626;2023-08-31T03:25:39;21.10;99.90
8313;DHT22;4194;43.408;24.626;2023-08-31T03:28:05;20.40;99.90
8313;DHT22;4194;43.408;24.626;2023-08-31T03:32:57;20.50;99.90
8313;DHT22;4194;43.408;24.626;2023-08-31T03:35:23;20.30;99.90
8313;DHT22;4194;43.408;24.626;2023-08-31T03:37:53;21.00;99.90
8313;DHT22;4194;43.408;24.626;2023-08-31T03:40:22;21.00;99.90
8313;DHT22;4194;43.408;24.626;2023-08-31T03:43:03;20.10;99.90
8313;DHT22;4194;43.408;24.626;2023-08-31T03:45:28;20.80;99.90
8313;DHT22;4194;43.408;24.626;2023-08-31T03:47:54;21.20;99.90
8313;DHT22;4194;43.408;24.626;2023-08-31T03:50:22;20.90;99.90
8313;DHT22;4194;43.408;24.626;2023-08-31T03:52:48;20.90;99.90
8313;DHT22;4194;43.408;24.626;2023-08-31T03:55:13;21.00;99.90
8313;DHT22;4194;43.408;24.626;2023-08-31T03:57:48;21.00;99.90
8313;DHT22;4194;43.408;24.626;2023-08-31T04:00:14;20.80;99.90
8313;DHT22;4194;43.408;24.626;2023-08-31T04:02:41;21.00;99.90
8313;DHT22;4194;43.408;24.626;2023-08-31T04:05:07;20.10;99.90
8313;DHT22;4194;43.408;24.626;2023-08-31T04:07:38;20.40;99.90
8313;DHT22;4194;43.408;24.626;2023-08-31T04:10:04;21.50;99.90
8313;DHT22;4194;43.408;24.626;2023-08-31T04:12:30;20.90;99.90
8313;DHT22;4194;43.408;24.626;2023-08-31T04:14:56;21.90;99.90
8313;DHT22;4194;43.408;24.626;2023-08-31T04:17:24;21.00;99.90
8313;DHT22;4194;43.408;24.626;2023-08-31T04:19:50;20.80;99.90
8313;DHT22;4194;43.408;24.626;2023-08-31T04:22:16;21.30;99.90
8313;DHT22;4194;43.408;24.626;2023-08-31T04:24:42;21.20;99.90
8313;DHT22;4194;43.408;24.626;2023-08-31T04:27:08;21.10;99.90
8313;DHT22;4194;43.408;24.626;2023-08-31T04:29:33;21.60;99.90
8313;DHT22;4194;43.408;24.626;2023-08-31T04:31:59;21.10;99.90
8313;DHT22;4194;43.408;24.626;2023-08-31T04:34:25;20.90;99.90
8313;DHT22;4194;43.408;24.626;2023-08-31T04:36:54;21.50;99.90
8313;DHT22;4194;43.408;24.626;2023-08-31T04:39:20;21.10;99.90
8313;DHT22;4194;43.408;24.626;2023-08-31T04:41:45;20.80;99.90
8313;DHT22;4194;43.408;24.626;2023-08-31T04:44:11;21.10;99.90
8313;DHT22;4194;43.408;24.626;2023-08-31T04:46:38;21.20;99.90
8313;DHT22;4194;43.408;24.626;2023-08-31T04:49:04;21.60;99.90
8313;DHT22;4194;43.408;24.626;2023-08-31T04:51:34;22.00;99.90
8313;DHT22;4194;43.408;24.626;2023-08-31T04:54:00;23.10;99.90
8313;DHT22;4194;43.408;24.626;2023-08-31T04:56:31;23.20;99.90
8313;DHT22;4194;43.408;24.626;2023-08-31T04:58:58;22.50;99.90
8313;DHT22;4194;43.408;24.626;2023-08-31T05:01:23;21.30;99.90
8313;DHT22;4194;43.408;24.626;2023-08-31T05:03:54;22.90;99.90
8313;DHT22;4194;43.408;24.626;2023-08-31T05:08:47;21.50;99.90
8313;DHT22;4194;43.408;24.626;2023-08-31T05:11:14;23.30;99.90
8313;DHT22;4194;43.408;24.626;2023-08-31T05:13:40;23.20;99.90
8313;DHT22;4194;43.408;24.626;2023-08-31T05:16:10;23.50;99.90
8313;DHT22;4194;43.408;24.626;2023-08-31T05:18:37;23.40;99.90
8313;DHT22;4194;43.408;24.626;2023-08-31T05:21:05;23.30;99.90
8313;DHT22;4194;43.408;24.626;2023-08-31T05:23:31;23.10;99.90
8313;DHT22;4194;43.408;24.626;2023-08-31T05:25:57;22.70;99.90
8313;DHT22;4194;43.408;24.626;2023-08-31T05:28:23;22.90;99.90
8313;DHT22;4194;43.408;24.626;2023-08-31T05:30:50;21.70;99.90
8313;DHT22;4194;43.408;24.626;2023-08-31T05:33:17;23.20;99.90
8313;DHT22;4194;43.408;24.626;2023-08-31T05:38:09;23.10;99.90
8313;DHT22;4194;43.408;24.626;2023-08-31T05:40:35;22.80;99.90
8313;DHT22;4194;43.408;24.626;2023-08-31T05:43:01;22.30;99.90
8313;DHT22;4194;43.408;24.626;2023-08-31T05:45:31;21.90;99.90
8313;DHT22;4194;43.408;24.626;2023-08-31T05:48:01;23.30;99.90
8313;DHT22;4194;43.408;24.626;2023-08-31T05:50:27;23.00;99.90
8313;DHT22;4194;43.408;24.626;2023-08-31T05:52:53;23.20;99.90
8313;DHT22;4194;43.408;24.626;2023-08-31T05:55:19;23.00;99.90
8313;DHT22;4194;43.408;24.626;2023-08-31T05:57:45;23.10;99.90
8313;DHT22;4194;43.408;24.626;2023-08-31T06:00:11;23.40;99.90
8313;DHT22;4194;43.408;24.626;2023-08-31T06:02:37;23.20;99.90
8313;DHT22;4194;43.408;24.626;2023-08-31T06:05:03;22.90;99.90
8313;DHT22;4194;43.408;24.626;2023-08-31T06:07:29;23.60;99.90
8313;DHT22;4194;43.408;24.626;2023-08-31T06:09:57;23.10;99.90
8313;DHT22;4194;43.408;24.626;2023-08-31T06:14:49;24.10;99.90
8313;DHT22;4194;43.408;24.626;2023-08-31T06:19:41;22.90;99.90
8313;DHT22;4194;43.408;24.626;2023-08-31T06:22:07;22.60;99.90
8313;DHT22;4194;43.408;24.626;2023-08-31T06:24:33;23.20;99.90
8313;DHT22;4194;43.408;24.626;2023-08-31T06:31:51;23.20;99.90
8313;DHT22;4194;43.408;24.626;2023-08-31T06:34:17;23.20;99.90
8313;DHT22;4194;43.408;24.626;2023-08-31T06:36:43;23.10;99.90
8313;DHT22;4194;43.408;24.626;2023-08-31T06:39:08;23.40;99.90
8313;DHT22;4194;43.408;24.626;2023-08-31T06:41:34;23.50;99.90
8313;DHT22;4194;43.408;24.626;2023-08-31T06:44:01;23.00;99.90
8313;DHT22;4194;43.408;24.626;2023-08-31T06:46:26;22.90;99.90
8313;DHT22;4194;43.408;24.626;2023-08-31T06:51:19;24.70;97.80
8313;DHT22;4194;43.408;24.626;2023-08-31T06:53:46;25.40;96.40
8313;DHT22;4194;43.408;24.626;2023-08-31T06:56:12;25.50;95.60
8313;DHT22;4194;43.408;24.626;2023-08-31T06:58:37;25.70;95.20
8313;DHT22;4194;43.408;24.626;2023-08-31T07:01:06;25.20;94.90
8313;DHT22;4194;43.408;24.626;2023-08-31T07:03:31;25.30;94.50
8313;DHT22;4194;43.408;24.626;2023-08-31T07:05:57;25.50;94.60
8313;DHT22;4194;43.408;24.626;2023-08-31T07:08:23;24.10;93.90
8313;DHT22;4194;43.408;24.626;2023-08-31T07:10:52;24.90;94.70
8313;DHT22;4194;43.408;24.626;2023-08-31T07:13:17;25.30;94.80
8313;DHT22;4194;43.408;24.626;2023-08-31T07:18:09;25.90;94.80
8313;DHT22;4194;43.408;24.626;2023-08-31T07:23:01;25.60;93.60
8313;DHT22;4194;43.408;24.626;2023-08-31T07:25:27;25.00;92.70
8313;DHT22;4194;43.408;24.626;2023-08-31T07:27:53;25.30;92.40
8313;DHT22;4194;43.408;24.626;2023-08-31T07:30:19;25.80;91.80
8313;DHT22;4194;43.408;24.626;2023-08-31T07:35:11;26.30;86.00
8313;DHT22;4194;43.408;24.626;2023-08-31T07:37:37;27.10;83.90
8313;DHT22;4194;43.408;24.626;2023-08-31T07:40:03;26.50;82.20
8313;DHT22;4194;43.408;24.626;2023-08-31T07:42:34;26.50;81.80
8313;DHT22;4194;43.408;24.626;2023-08-31T07:44:59;26.20;79.30
8313;DHT22;4194;43.408;24.626;2023-08-31T07:47:25;26.80;78.00
8313;DHT22;4194;43.408;24.626;2023-08-31T07:49:51;27.40;76.10
8313;DHT22;4194;43.408;24.626;2023-08-31T07:52:16;25.80;74.00
8313;DHT22;4194;43.408;24.626;2023-08-31T08:02:06;26.70;71.70
8313;DHT22;4194;43.408;24.626;2023-08-31T08:04:31;26.80;72.10
8313;DHT22;4194;43.408;24.626;2023-08-31T08:09:23;27.10;71.00
8313;DHT22;4194;43.408;24.626;2023-08-31T08:11:49;27.30;70.50
8313;DHT22;4194;43.408;24.626;2023-08-31T08:14:16;27.50;70.80
8313;DHT22;4194;43.408;24.626;2023-08-31T08:16:42;27.40;69.90
8313;DHT22;4194;43.408;24.626;2023-08-31T08:21:34;27.20;69.00
8313;DHT22;4194;43.408;24.626;2023-08-31T08:24:00;27.10;67.90
8313;DHT22;4194;43.408;24.626;2023-08-31T08:26:26;27.50;68.00
8313;DHT22;4194;43.408;24.626;2023-08-31T08:28:51;27.30;68.30
8313;DHT22;4194;43.408;24.626;2023-08-31T08:31:17;27.10;68.20
8313;DHT22;4194;43.408;24.626;2023-08-31T08:33:42;28.00;67.90
8313;DHT22;4194;43.408;24.626;2023-08-31T08:36:08;27.80;67.20
8313;DHT22;4194;43.408;24.626;2023-08-31T08:38:37;28.20;68.30
8313;DHT22;4194;43.408;24.626;2023-08-31T08:41:06;28.20;67.80
8313;DHT22;4194;43.408;24.626;2023-08-31T08:43:34;29.10;67.50
8313;DHT22;4194;43.408;24.626;2023-08-31T08:46:05;28.30;67.50
8313;DHT22;4194;43.408;24.626;2023-08-31T08:48:33;27.80;65.20
8313;DHT22;4194;43.408;24.626;2023-08-31T08:51:02;27.30;65.00
8313;DHT22;4194;43.408;24.626;2023-08-31T08:53:28;29.00;64.60
8313;DHT22;4194;43.408;24.626;2023-08-31T08:55:54;28.20;64.20
8313;DHT22;4194;43.408;24.626;2023-08-31T08:58:20;27.10;63.10
8313;DHT22;4194;43.408;24.626;2023-08-31T09:00:47;29.40;64.70
8313;DHT22;4194;43.408;24.626;2023-08-31T09:03:13;28.60;63.50
8313;DHT22;4194;43.408;24.626;2023-08-31T09:05:39;28.80;63.80
8313;DHT22;4194;43.408;24.626;2023-08-31T09:08:09;28.80;62.10
8313;DHT22;4194;43.408;24.626;2023-08-31T09:10:42;28.90;61.60
8313;DHT22;4194;43.408;24.626;2023-08-31T09:13:09;29.40;62.90
8313;DHT22;4194;43.408;24.626;2023-08-31T09:15:46;28.80;62.30
8313;DHT22;4194;43.408;24.626;2023-08-31T09:18:23;30.10;62.90
8313;DHT22;4194;43.408;24.626;2023-08-31T09:20:51;29.60;62.10
8313;DHT22;4194;43.408;24.626;2023-08-31T09:23:17;29.40;62.10
8313;DHT22;4194;43.408;24.626;2023-08-31T09:28:10;29.30;62.20
8313;DHT22;4194;43.408;24.626;2023-08-31T09:30:39;29.40;61.10
8313;DHT22;4194;43.408;24.626;2023-08-31T09:33:07;29.40;60.70
8313;DHT22;4194;43.408;24.626;2023-08-31T09:35:38;29.20;60.40
8313;DHT22;4194;43.408;24.626;2023-08-31T09:38:07;29.70;60.60
8313;DHT22;4194;43.408;24.626;2023-08-31T09:40:33;29.40;60.00
8313;DHT22;4194;43.408;24.626;2023-08-31T09:42:59;30.40;60.90
8313;DHT22;4194;43.408;24.626;2023-08-31T09:45:31;29.20;59.20
8313;DHT22;4194;43.408;24.626;2023-08-31T09:47:59;29.40;59.70
8313;DHT22;4194;43.408;24.626;2023-08-31T09:50:30;29.70;59.50
8313;DHT22;4194;43.408;24.626;2023-08-31T09:53:03;29.40;59.20
8313;DHT22;4194;43.408;24.626;2023-08-31T09:55:33;29.60;60.00
8313;DHT22;4194;43.408;24.626;2023-08-31T09:58:01;30.00;61.40
8313;DHT22;4194;43.408;24.626;2023-08-31T10:00:29;29.90;60.90
8313;DHT22;4194;43.408;24.626;2023-08-31T10:02:58;28.50;59.20
8313;DHT22;4194;43.408;24.626;2023-08-31T10:05:25;29.90;58.80
8313;DHT22;4194;43.408;24.626;2023-08-31T10:07:51;30.90;60.20
8313;DHT22;4194;43.408;24.626;2023-08-31T10:10:20;30.80;59.40
8313;DHT22;4194;43.408;24.626;2023-08-31T10:12:48;30.30;58.50
8313;DHT22;4194;43.408;24.626;2023-08-31T10:15:16;30.00;57.30
8313;DHT22;4194;43.408;24.626;2023-08-31T10:20:11;31.10;57.70
8313;DHT22;4194;43.408;24.626;2023-08-31T10:22:37;31.90;57.30
8313;DHT22;4194;43.408;24.626;2023-08-31T10:25:05;31.50;56.10
8313;DHT22;4194;43.408;24.626;2023-08-31T10:27:38;33.10;56.60
8313;DHT22;4194;43.408;24.626;2023-08-31T10:35:49;32.90;53.40
8313;DHT22;4194;43.408;24.626;2023-08-31T10:38:27;32.70;52.60
8313;DHT22;4194;43.408;24.626;2023-08-31T10:43:55;33.40;51.80
8313;DHT22;4194;43.408;24.626;2023-08-31T10:49:19;33.00;52.20
8313;DHT22;4194;43.408;24.626;2023-08-31T10:51:55;33.50;50.50
8313;DHT22;4194;43.408;24.626;2023-08-31T10:54:30;35.00;50.80
8313;DHT22;4194;43.408;24.626;2023-08-31T10:59:52;34.00;49.00
8313;DHT22;4194;43.408;24.626;2023-08-31T11:05:13;34.80;47.80
8313;DHT22;4194;43.408;24.626;2023-08-31T11:07:47;35.10;48.80
8313;DHT22;4194;43.408;24.626;2023-08-31T11:10:21;34.80;48.50
8313;DHT22;4194;43.408;24.626;2023-08-31T11:12:53;35.30;48.00
8313;DHT22;4194;43.408;24.626;2023-08-31T11:15:21;35.80;47.30
8313;DHT22;4194;43.408;24.626;2023-08-31T11:17:51;35.20;46.70
8313;DHT22;4194;43.408;24.626;2023-08-31T11:20:19;34.90;47.10
8313;DHT22;4194;43.408;24.626;2023-08-31T11:22:49;34.10;47.20
8313;DHT22;4194;43.408;24.626;2023-08-31T11:25:16;35.00;47.00
8313;DHT22;4194;43.408;24.626;2023-08-31T11:27:52;34.70;47.30
8313;DHT22;4194;43.408;24.626;2023-08-31T11:32:51;35.80;45.90
8313;DHT22;4194;43.408;24.626;2023-08-31T11:35:18;36.30;45.60
8313;DHT22;4194;43.408;24.626;2023-08-31T11:37:44;36.70;46.50
8313;DHT22;4194;43.408;24.626;2023-08-31T11:40:11;36.90;44.70
8313;DHT22;4194;43.408;24.626;2023-08-31T11:42:40;36.40;45.50
8313;DHT22;4194;43.408;24.626;2023-08-31T11:45:06;33.70;44.00
8313;DHT22;4194;43.408;24.626;2023-08-31T11:47:33;36.00;46.10
8313;DHT22;4194;43.408;24.626;2023-08-31T11:50:00;35.70;45.80
8313;DHT22;4194;43.408;24.626;2023-08-31T11:52:30;35.90;45.30
8313;DHT22;4194;43.408;24.626;2023-08-31T11:54:56;36.70;45.20
8313;DHT22;4194;43.408;24.626;2023-08-31T11:57:31;36.80;43.60
8313;DHT22;4194;43.408;24.626;2023-08-31T11:59:56;37.30;43.30
8313;DHT22;4194;43.408;24.626;2023-08-31T12:02:22;36.80;43.40
8313;DHT22;4194;43.408;24.626;2023-08-31T12:04:48;38.40;41.70
8313;DHT22;4194;43.408;24.626;2023-08-31T12:07:18;37.30;41.20
8313;DHT22;4194;43.408;24.626;2023-08-31T12:09:47;38.40;42.00
8313;DHT22;4194;43.408;24.626;2023-08-31T12:12:14;38.90;41.30
8313;DHT22;4194;43.408;24.626;2023-08-31T12:14:41;40.00;40.50
8313;DHT22;4194;43.408;24.626;2023-08-31T12:17:08;40.20;40.30
8313;DHT22;4194;43.408;24.626;2023-08-31T12:19:36;41.60;38.90
8313;DHT22;4194;43.408;24.626;2023-08-31T12:24:38;41.50;36.80
8313;DHT22;4194;43.408;24.626;2023-08-31T12:27:06;43.70;37.40
8313;DHT22;4194;43.408;24.626;2023-08-31T12:29:32;43.40;35.50
8313;DHT22;4194;43.408;24.626;2023-08-31T12:34:24;42.40;35.70
8313;DHT22;4194;43.408;24.626;2023-08-31T12:36:50;40.00;37.10
8313;DHT22;4194;43.408;24.626;2023-08-31T12:41:42;40.70;37.90
8313;DHT22;4194;43.408;24.626;2023-08-31T12:44:08;42.30;36.10
8313;DHT22;4194;43.408;24.626;2023-08-31T12:46:34;41.20;34.50
8313;DHT22;4194;43.408;24.626;2023-08-31T12:49:00;40.50;35.30
8313;DHT22;4194;43.408;24.626;2023-08-31T12:51:28;42.10;36.00
8313;DHT22;4194;43.408;24.626;2023-08-31T12:53:53;42.10;35.10
8313;DHT22;4194;43.408;24.626;2023-08-31T12:56:20;42.50;34.30
8313;DHT22;4194;43.408;24.626;2023-08-31T12:58:50;42.70;33.20
8313;DHT22;4194;43.408;24.626;2023-08-31T13:01:16;44.40;33.10
8313;DHT22;4194;43.408;24.626;2023-08-31T13:03:41;44.70;32.10
8313;DHT22;4194;43.408;24.626;2023-08-31T13:06:07;46.70;31.90
8313;DHT22;4194;43.408;24.626;2023-08-31T13:08:33;45.80;30.00
8313;DHT22;4194;43.408;24.626;2023-08-31T13:10:59;46.30;30.20
8313;DHT22;4194;43.408;24.626;2023-08-31T13:13:24;46.70;29.60
8313;DHT22;4194;43.408;24.626;2023-08-31T13:15:50;47.20;30.60
8313;DHT22;4194;43.408;24.626;2023-08-31T13:18:16;47.10;30.50
8313;DHT22;4194;43.408;24.626;2023-08-31T13:20:52;46.70;29.90
8313;DHT22;4194;43.408;24.626;2023-08-31T13:23:20;46.50;30.00
8313;DHT22;4194;43.408;24.626;2023-08-31T13:25:46;45.70;29.70
8313;DHT22;4194;43.408;24.626;2023-08-31T13:28:12;41.70;30.90
8313;DHT22;4194;43.408;24.626;2023-08-31T13:30:38;40.10;34.10
8313;DHT22;4194;43.408;24.626;2023-08-31T13:33:04;39.50;35.60
8313;DHT22;4194;43.408;24.626;2023-08-31T13:35:31;42.20;34.90
8313;DHT22;4194;43.408;24.626;2023-08-31T13:40:22;43.80;32.10
8313;DHT22;4194;43.408;24.626;2023-08-31T13:42:56;44.60;31.00
8313;DHT22;4194;43.408;24.626;2023-08-31T13:45:24;44.60;30.00
8313;DHT22;4194;43.408;24.626;2023-08-31T13:50:19;46.90;29.30
8313;DHT22;4194;43.408;24.626;2023-08-31T13:52:45;46.20;28.80
8313;DHT22;4194;43.408;24.626;2023-08-31T13:57:38;41.40;32.80
8313;DHT22;4194;43.408;24.626;2023-08-31T14:00:04;41.10;33.70
8313;DHT22;4194;43.408;24.626;2023-08-31T14:05:02;44.10;32.00
8313;DHT22;4194;43.408;24.626;2023-08-31T14:07:27;45.10;30.10
8313;DHT22;4194;43.408;24.626;2023-08-31T14:09:53;46.70;29.60
8313;DHT22;4194;43.408;24.626;2023-08-31T14:12:19;45.50;30.20
8313;DHT22;4194;43.408;24.626;2023-08-31T14:14:45;44.40;30.50
8313;DHT22;4194;43.408;24.626;2023-08-31T14:17:12;45.70;30.70
8313;DHT22;4194;43.408;24.626;2023-08-31T14:22:04;45.60;29.10
8313;DHT22;4194;43.408;24.626;2023-08-31T14:24:30;45.40;30.00
8313;DHT22;4194;43.408;24.626;2023-08-31T14:26:56;46.60;30.00
8313;DHT22;4194;43.408;24.626;2023-08-31T14:29:23;46.10;29.20
8313;DHT22;4194;43.408;24.626;2023-08-31T14:31:48;45.50;29.30
8313;DHT22;4194;43.408;24.626;2023-08-31T14:36:40;45.70;30.00
8313;DHT22;4194;43.408;24.626;2023-08-31T14:39:06;46.20;30.00
8313;DHT22;4194;43.408;24.626;2023-08-31T14:41:32;44.10;29.70
8313;DHT22;4194;43.408;24.626;2023-08-31T14:43:57;44.60;30.20
8313;DHT22;4194;43.408;24.626;2023-08-31T14:46:41;45.40;30.20
8313;DHT22;4194;43.408;24.626;2023-08-31T14:49:07;46.30;30.60
8313;DHT22;4194;43.408;24.626;2023-08-31T14:51:32;46.30;30.00
8313;DHT22;4194;43.408;24.626;2023-08-31T14:53:58;46.30;31.10
8313;DHT22;4194;43.408;24.626;2023-08-31T14:58:50;45.30;30.00
8313;DHT22;4194;43.408;24.626;2023-08-31T15:01:15;44.70;30.50
8313;DHT22;4194;43.408;24.626;2023-08-31T15:03:41;43.70;30.70
8313;DHT22;4194;43.408;24.626;2023-08-31T15:06:07;44.20;31.80
8313;DHT22;4194;43.408;24.626;2023-08-31T15:08:38;44.00;31.00
8313;DHT22;4194;43.408;24.626;2023-08-31T15:11:04;43.40;30.20
8313;DHT22;4194;43.408;24.626;2023-08-31T15:13:30;43.40;31.90
8313;DHT22;4194;43.408;24.626;2023-08-31T15:15:55;43.60;32.00
8313;DHT22;4194;43.408;24.626;2023-08-31T15:18:22;42.60;32.00
8313;DHT22;4194;43.408;24.626;2023-08-31T15:20:47;42.70;32.60
8313;DHT22;4194;43.408;24.626;2023-08-31T15:23:13;43.00;32.50
8313;DHT22;4194;43.408;24.626;2023-08-31T15:25:39;42.70;33.30
8313;DHT22;4194;43.408;24.626;2023-08-31T15:28:05;41.50;33.30
8313;DHT22;4194;43.408;24.626;2023-08-31T15:33:04;38.60;35.00
8313;DHT22;4194;43.408;24.626;2023-08-31T15:35:31;38.00;36.90
8313;DHT22;4194;43.408;24.626;2023-08-31T15:37:58;36.20;38.70
8313;DHT22;4194;43.408;24.626;2023-08-31T15:42:49;33.40;41.90
8313;DHT22;4194;43.408;24.626;2023-08-31T15:45:15;32.20;43.30
8313;DHT22;4194;43.408;24.626;2023-08-31T15:47:41;32.20;44.60
8313;DHT22;4194;43.408;24.626;2023-08-31T15:50:07;32.00;45.70
8313;DHT22;4194;43.408;24.626;2023-08-31T15:52:33;30.40;46.30
8313;DHT22;4194;43.408;24.626;2023-08-31T15:55:02;31.00;47.00
8313;DHT22;4194;43.408;24.626;2023-08-31T15:57:29;30.70;47.30
8313;DHT22;4194;43.408;24.626;2023-08-31T15:59:58;30.40;47.40
8313;DHT22;4194;43.408;24.626;2023-08-31T16:04:52;30.80;47.60
8313;DHT22;4194;43.408;24.626;2023-08-31T16:07:19;30.80;47.80
8313;DHT22;4194;43.408;24.626;2023-08-31T16:09:45;29.70;48.10
8313;DHT22;4194;43.408;24.626;2023-08-31T16:12:12;29.60;47.20
8313;DHT22;4194;43.408;24.626;2023-08-31T16:14:38;29.70;47.00
8313;DHT22;4194;43.408;24.626;2023-08-31T16:17:03;29.00;47.00
8313;DHT22;4194;43.408;24.626;2023-08-31T16:19:29;29.20;47.60
8313;DHT22;4194;43.408;24.626;2023-08-31T16:21:55;28.10;47.20
8313;DHT22;4194;43.408;24.626;2023-08-31T16:24:20;29.10;48.50
8313;DHT22;4194;43.408;24.626;2023-08-31T16:26:46;28.40;49.20
8313;DHT22;4194;43.408;24.626;2023-08-31T16:29:12;28.80;49.10
8313;DHT22;4194;43.408;24.626;2023-08-31T16:31:38;28.20;49.20
8313;DHT22;4194;43.408;24.626;2023-08-31T16:34:04;27.90;49.90
8313;DHT22;4194;43.408;24.626;2023-08-31T16:36:31;28.00;50.60
8313;DHT22;4194;43.408;24.626;2023-08-31T16:38:57;27.80;51.20
8313;DHT22;4194;43.408;24.626;2023-08-31T16:41:23;27.40;51.60
8313;DHT22;4194;43.408;24.626;2023-08-31T16:46:21;27.70;52.70
8313;DHT22;4194;43.408;24.626;2023-08-31T16:48:46;28.50;53.80
8313;DHT22;4194;43.408;24.626;2023-08-31T16:51:12;27.50;53.60
8313;DHT22;4194;43.408;24.626;2023-08-31T16:53:38;27.10;53.90
8313;DHT22;4194;43.408;24.626;2023-08-31T16:56:05;27.30;54.60
8313;DHT22;4194;43.408;24.626;2023-08-31T16:58:31;27.30;55.10
8313;DHT22;4194;43.408;24.626;2023-08-31T17:00:56;27.10;55.90
8313;DHT22;4194;43.408;24.626;2023-08-31T17:03:22;27.10;56.00
8313;DHT22;4194;43.408;24.626;2023-08-31T17:05:52;27.10;56.60
8313;DHT22;4194;43.408;24.626;2023-08-31T17:08:17;27.30;57.50
8313;DHT22;4194;43.408;24.626;2023-08-31T17:10:43;26.90;56.90
8313;DHT22;4194;43.408;24.626;2023-08-31T17:13:09;26.80;57.40
8313;DHT22;4194;43.408;24.626;2023-08-31T17:18:01;27.30;58.10
8313;DHT22;4194;43.408;24.626;2023-08-31T17:20:26;26.70;57.90
8313;DHT22;4194;43.408;24.626;2023-08-31T17:22:55;27.00;58.50
8313;DHT22;4194;43.408;24.626;2023-08-31T17:25:22;26.60;58.50
8313;DHT22;4194;43.408;24.626;2023-08-31T17:27:47;26.60;58.90
8313;DHT22;4194;43.408;24.626;2023-08-31T17:30:13;26.60;59.00
8313;DHT22;4194;43.408;24.626;2023-08-31T17:32:39;26.50;59.20
8313;DHT22;4194;43.408;24.626;2023-08-31T17:35:06;26.60;60.00
8313;DHT22;4194;43.408;24.626;2023-08-31T17:37:35;27.30;62.10
8313;DHT22;4194;43.408;24.626;2023-08-31T17:40:02;26.80;61.40